Time;durP1;ratioP1;P1;durP2;ratioP2;P2;SDS_P1;SDS_P2;PMS_P1;PMS_P2;Temp;Humidity;BMP_temperature;BMP_pressure;BME280_temperature;BME280_humidity;BME280_pressure;Samples;Min_cycle;Max_cycle;Signal;HPM_P1;HPM_P2
2021/03/20 00:00:14;;;;;;;;;;;;;;;6.94;51.54;102046.91;5015552;28;6948;-78
2021/03/20 00:02:39;;;;;;;;;;;;;;;6.87;51.55;102056.00;5010171;28;7127;-78
2021/03/20 00:05:05;;;;;;;;;;;;;;;6.85;51.59;102052.44;5017286;28;7090;-77
2021/03/20 00:07:31;;;;;;;;;;;;;;;6.79;51.65;102054.63;4989805;28;6820;-78
2021/03/20 00:09:56;;;;;;;;;;;;;;;6.78;51.38;102057.13;4991612;28;7961;-79
2021/03/20 00:12:22;;;;;;;;;;;;;;;6.72;51.47;102063.72;5002776;28;7206;-77
2021/03/20 00:14:48;;;;;;;;;;;;;;;6.68;51.50;102058.28;4994955;28;7055;-78
2021/03/20 00:17:14;;;;;;;;;;;;;;;6.63;51.69;102055.44;4973470;28;6945;-79
2021/03/20 00:19:39;;;;;;;;;;;;;;;6.60;51.73;102046.59;4988373;28;7107;-79
2021/03/20 00:22:05;;;;;;;;;;;;;;;6.56;51.69;102045.53;5014231;28;7387;-79
2021/03/20 00:24:30;;;;;;;;;;;;;;;6.53;51.65;102047.03;5016660;28;7384;-77
2021/03/20 00:26:56;;;;;;;;;;;;;;;6.49;51.86;102055.41;4989173;28;6974;-78
2021/03/20 00:29:21;;;;;;;;;;;;;;;6.46;52.15;102066.44;5005800;28;7198;-80
2021/03/20 00:31:47;;;;;;;;;;;;;;;6.42;51.99;102064.47;4997214;28;7198;-79
2021/03/20 00:34:13;;;;;;;;;;;;;;;6.37;51.76;102058.13;4986840;28;9653;-77
2021/03/20 00:36:39;;;;;;;;;;;;;;;6.33;52.37;102061.31;5008728;28;7204;-78
2021/03/20 00:39:05;;;;;;;;;;;;;;;6.30;52.28;102059.44;5015255;28;7206;-77
2021/03/20 00:41:31;;;;;;;;;;;;;;;6.25;51.98;102054.81;4974903;28;8631;-78
2021/03/20 00:43:56;;;;;;;;;;;;;;;6.24;52.55;102063.34;4982009;28;6848;-78
2021/03/20 00:46:22;;;;;;;;;;;;;;;6.20;52.10;102061.34;5000247;28;7100;-81
2021/03/20 00:48:48;;;;;;;;;;;;;;;6.14;52.82;102061.88;4994426;28;7249;-78
2021/03/20 00:51:13;;;;;;;;;;;;;;;6.13;52.52;102062.69;5012924;28;7503;-77
2021/03/20 00:53:39;;;;;;;;;;;;;;;6.08;52.82;102064.97;5013643;28;7131;-78
2021/03/20 00:56:04;;;;;;;;;;;;;;;6.04;52.96;102068.16;5019076;28;7367;-80
2021/03/20 00:58:35;;;;;;;;;;;;;;;6.02;52.84;102068.88;4999677;28;11271;-79
2021/03/20 01:01:21;;;;;;;;;;;;;;;5.97;52.33;102058.25;4987209;28;11188;-79
2021/03/20 01:03:47;;;;;;;;;;;;;;;5.95;52.75;102064.09;4996932;28;11139;-79
2021/03/20 01:06:15;;;;;;;;;;;;;;;5.90;52.79;102062.94;4989801;28;7335;-79
2021/03/20 01:08:41;;;;;;;;;;;;;;;5.88;53.00;102072.22;5003348;28;6905;-80
2021/03/20 01:11:07;;;;;;;;;;;;;;;5.85;52.87;102078.09;4991389;28;7209;-79
2021/03/20 01:13:32;;;;;;;;;;;;;;;5.83;52.58;102073.63;4984401;28;7378;-78
2021/03/20 01:15:58;;;;;;;;;;;;;;;5.78;53.02;102070.72;5005243;28;7231;-78
2021/03/20 01:18:23;;;;;;;;;;;;;;;5.74;53.07;102068.75;5016177;28;7278;-78
2021/03/20 01:20:49;;;;;;;;;;;;;;;5.69;53.59;102065.91;4996076;28;7332;-80
2021/03/20 01:23:15;;;;;;;;;;;;;;;5.69;52.97;102073.63;5019731;28;6841;-78
2021/03/20 01:25:40;;;;;;;;;;;;;;;5.64;53.24;102074.16;5002848;28;6929;-77
2021/03/20 01:28:06;;;;;;;;;;;;;;;5.61;53.07;102074.84;5014392;28;7122;-77
2021/03/20 01:30:34;;;;;;;;;;;;;;;5.61;53.44;102084.25;4985982;28;7183;-78
2021/03/20 01:32:59;;;;;;;;;;;;;;;5.56;53.46;102086.50;5005934;28;6991;-79
2021/03/20 01:35:25;;;;;;;;;;;;;;;5.51;53.09;102087.91;4998674;28;8483;-77
2021/03/20 01:37:51;;;;;;;;;;;;;;;5.48;53.41;102086.03;5011968;28;7528;-81
2021/03/20 01:40:21;;;;;;;;;;;;;;;5.44;53.45;102083.16;4985644;28;6832;-77
2021/03/20 01:42:47;;;;;;;;;;;;;;;5.42;53.60;102079.59;5006179;28;9090;-77
2021/03/20 01:45:21;;;;;;;;;;;;;;;5.39;53.50;102084.53;5016524;28;7485;-78
2021/03/20 01:47:56;;;;;;;;;;;;;;;5.36;53.84;102086.91;4992488;28;6824;-78
2021/03/20 01:51:00;;;;;;;;;;;;;;;5.33;53.58;102078.97;5005942;28;7187;-79
2021/03/20 01:53:35;;;;;;;;;;;;;;;5.29;53.38;102077.00;4925399;28;13061;-79
2021/03/20 01:56:01;;;;;;;;;;;;;;;5.27;53.97;102081.16;5010564;28;6859;-79
2021/03/20 01:58:27;;;;;;;;;;;;;;;5.25;53.68;102080.19;4992495;28;7001;-78
2021/03/20 02:01:03;;;;;;;;;;;;;;;5.20;53.88;102077.28;5001511;28;7391;-78
2021/03/20 02:03:29;;;;;;;;;;;;;;;5.17;54.01;102082.22;5004620;28;6816;-79
2021/03/20 02:05:55;;;;;;;;;;;;;;;5.14;53.60;102077.78;5008033;28;7341;-80
2021/03/20 02:08:20;;;;;;;;;;;;;;;5.12;53.72;102073.31;4982097;28;7791;-78
2021/03/20 02:10:46;;;;;;;;;;;;;;;5.07;54.31;102065.28;5005854;28;7225;-77
2021/03/20 02:13:16;;;;;;;;;;;;;;;5.04;54.02;102059.94;5003846;28;7072;-79
2021/03/20 02:15:46;;;;;;;;;;;;;;;5.02;53.67;102056.38;4994191;28;6864;-77
2021/03/20 02:18:15;;;;;;;;;;;;;;;4.97;54.28;102055.16;4985901;28;7247;-79
2021/03/20 02:20:51;;;;;;;;;;;;;;;4.97;54.13;102055.16;4987246;28;8431;-80
2021/03/20 02:23:32;;;;;;;;;;;;;;;4.93;54.46;102052.28;5018605;28;6814;-78
2021/03/20 02:26:31;;;;;;;;;;;;;;;4.90;54.26;102047.84;5017339;28;7195;-79
2021/03/20 02:29:28;;;;;;;;;;;;;;;4.87;54.21;102045.94;5017600;28;11216;-78
2021/03/20 02:32:08;;;;;;;;;;;;;;;4.85;54.13;102046.63;5015093;28;11415;-80
2021/03/20 02:35:03;;;;;;;;;;;;;;;4.80;54.16;102040.25;5019105;28;11466;-78
2021/03/20 02:37:32;;;;;;;;;;;;;;;4.78;54.06;102044.41;5003146;28;10984;-79
2021/03/20 02:40:02;;;;;;;;;;;;;;;4.74;54.44;102032.16;5010688;28;7210;-78
2021/03/20 02:42:42;;;;;;;;;;;;;;;4.73;54.20;102044.13;4991409;28;7246;-81
2021/03/20 02:45:14;;;;;;;;;;;;;;;4.70;54.33;102033.63;5019760;28;11100;-82
2021/03/20 02:47:48;;;;;;;;;;;;;;;4.66;54.26;102043.63;4999958;28;11088;-78
2021/03/20 02:50:18;;;;;;;;;;;;;;;4.64;54.50;102040.06;4994363;28;7281;-77
2021/03/20 02:52:51;;;;;;;;;;;;;;;4.59;55.21;102038.03;5013679;28;7512;-80
2021/03/20 02:55:19;;;;;;;;;;;;;;;4.57;55.04;102041.31;5020361;28;7151;-78
2021/03/20 02:57:50;;;;;;;;;;;;;;;4.54;54.62;102044.56;5002835;28;8551;-78
2021/03/20 03:00:33;;;;;;;;;;;;;;;4.50;55.28;102040.00;5004109;28;6896;-78
2021/03/20 03:02:58;;;;;;;;;;;;;;;4.49;54.78;102056.22;5002850;28;7301;-82
2021/03/20 03:05:27;;;;;;;;;;;;;;;4.46;55.50;102056.03;4996869;28;7564;-77
2021/03/20 03:07:56;;;;;;;;;;;;;;;4.45;54.44;102064.53;5005230;28;7079;-78
2021/03/20 03:10:35;;;;;;;;;;;;;;;4.42;54.74;102064.31;4994431;28;6815;-80
2021/03/20 03:13:20;;;;;;;;;;;;;;;4.38;54.96;102061.41;5004380;28;7050;-77
2021/03/20 03:15:51;;;;;;;;;;;;;;;4.35;54.95;102074.94;4993256;28;11423;-78
2021/03/20 03:18:38;;;;;;;;;;;;;;;4.33;54.83;102073.94;5003492;28;6942;-77
2021/03/20 03:21:05;;;;;;;;;;;;;;;4.30;55.32;102078.00;5012204;28;7251;-78
2021/03/20 03:23:32;;;;;;;;;;;;;;;4.27;54.80;102074.44;5009216;28;6803;-78
2021/03/20 03:26:07;;;;;;;;;;;;;;;4.25;54.96;102075.13;4987162;28;8113;-77
2021/03/20 03:28:32;;;;;;;;;;;;;;;4.22;54.92;102074.91;4997482;28;7264;-78
2021/03/20 03:31:04;;;;;;;;;;;;;;;4.20;55.05;102073.88;4999277;28;7159;-78
2021/03/20 03:33:39;;;;;;;;;;;;;;;4.15;55.67;102071.00;4990951;28;6965;-78
2021/03/20 03:36:08;;;;;;;;;;;;;;;4.16;55.28;102064.16;4995847;28;11527;-77
2021/03/20 03:39:05;;;;;;;;;;;;;;;4.13;54.73;102070.00;4989284;28;7218;-78
2021/03/20 03:41:36;;;;;;;;;;;;;;;4.07;55.00;102064.44;5001800;28;12540;-77
2021/03/20 03:44:02;;;;;;;;;;;;;;;4.05;55.71;102071.16;4995109;28;7214;-80
2021/03/20 03:46:32;;;;;;;;;;;;;;;4.03;55.44;102076.97;4997551;28;6779;-81
2021/03/20 03:48:59;;;;;;;;;;;;;;;4.01;55.19;102081.13;5005418;28;7274;-81
2021/03/20 03:51:25;;;;;;;;;;;;;;;3.93;55.53;102076.31;4986737;28;7321;-77
2021/03/20 03:53:51;;;;;;;;;;;;;;;3.94;55.15;102080.66;5018056;28;7171;-82
2021/03/20 03:56:54;;;;;;;;;;;;;;;3.93;55.59;102085.69;5000488;28;7289;-78
2021/03/20 03:59:48;;;;;;;;;;;;;;;3.90;55.11;102088.03;5016658;28;11082;-78
2021/03/20 04:02:16;;;;;;;;;;;;;;;3.85;55.47;102081.69;5003455;28;11075;-78
2021/03/20 04:04:41;;;;;;;;;;;;;;;3.87;55.31;102082.69;4995235;28;8316;-76
2021/03/20 04:07:26;;;;;;;;;;;;;;;3.84;55.96;102087.63;5017033;28;7098;-79
2021/03/20 04:10:12;;;;;;;;;;;;;;;3.80;55.60;102086.47;5008205;28;11223;-77
2021/03/20 04:12:44;;;;;;;;;;;;;;;3.76;55.77;102092.19;5011061;28;11037;-77
2021/03/20 04:15:23;;;;;;;;;;;;;;;3.71;55.74;102093.53;5012131;28;11165;-78
2021/03/20 04:18:05;;;;;;;;;;;;;;;3.72;55.80;102089.28;4996658;28;11073;-77
2021/03/20 04:20:55;;;;;;;;;;;;;;;3.73;56.17;102097.13;4993448;28;7510;-78
2021/03/20 04:23:46;;;;;;;;;;;;;;;3.69;56.01;102084.84;5017274;28;11543;-77
2021/03/20 04:26:25;;;;;;;;;;;;;;;3.68;56.47;102098.47;5010325;28;11262;-81
2021/03/20 04:28:53;;;;;;;;;;;;;;;3.65;56.27;102099.16;4988246;28;11112;-82
2021/03/20 04:31:51;;;;;;;;;;;;;;;3.64;55.65;102106.75;5015669;28;7182;-79
2021/03/20 04:34:16;;;;;;;;;;;;;;;3.61;56.58;102096.25;5002308;28;11290;-77
2021/03/20 04:37:02;;;;;;;;;;;;;;;3.60;56.49;102095.34;5013340;28;7434;-77
2021/03/20 04:39:29;;;;;;;;;;;;;;;3.62;55.97;102098.03;5003542;28;11105;-80
2021/03/20 04:41:54;;;;;;;;;;;;;;;3.60;56.89;102094.44;5004717;28;7048;-78
2021/03/20 04:44:20;;;;;;;;;;;;;;;3.60;56.25;102097.00;4991636;28;7659;-79
2021/03/20 04:46:45;;;;;;;;;;;;;;;3.59;56.35;102113.19;4998537;28;6991;-81
2021/03/20 04:49:35;;;;;;;;;;;;;;;3.56;56.81;102113.88;4995682;28;7075;-78
2021/03/20 04:52:18;;;;;;;;;;;;;;;3.53;57.13;102105.06;4996682;28;11279;-77
2021/03/20 04:54:43;;;;;;;;;;;;;;;3.54;56.88;102105.16;4998871;28;11189;-77
2021/03/20 04:57:09;;;;;;;;;;;;;;;3.56;56.50;102111.31;4990463;28;7043;-78
2021/03/20 04:59:47;;;;;;;;;;;;;;;3.55;56.90;102108.63;5016822;28;7027;-78
2021/03/20 05:02:18;;;;;;;;;;;;;;;3.55;56.37;102106.94;5002028;28;13724;-78
2021/03/20 05:04:44;;;;;;;;;;;;;;;3.56;57.09;102098.47;5002313;28;6835;-78
2021/03/20 05:07:09;;;;;;;;;;;;;;;3.58;56.87;102101.13;5001173;28;7075;-77
2021/03/20 05:09:35;;;;;;;;;;;;;;;3.56;56.81;102107.84;5007485;28;7369;-78
2021/03/20 05:12:25;;;;;;;;;;;;;;;3.54;57.30;102105.16;4995735;28;7894;-78
2021/03/20 05:14:59;;;;;;;;;;;;;;;3.55;56.74;102106.06;5009608;28;11536;-81
2021/03/20 05:17:24;;;;;;;;;;;;;;;3.52;56.48;102105.84;5015305;28;6959;-80
2021/03/20 05:19:50;;;;;;;;;;;;;;;3.54;56.52;102100.03;5015610;28;6804;-77
2021/03/20 05:22:20;;;;;;;;;;;;;;;3.56;57.13;102100.13;4999567;28;7183;-78
2021/03/20 05:24:47;;;;;;;;;;;;;;;3.56;56.93;102093.31;5016806;28;9827;-77
2021/03/20 05:27:12;;;;;;;;;;;;;;;3.58;57.43;102098.56;5005502;28;7181;-81
2021/03/20 05:29:38;;;;;;;;;;;;;;;3.57;56.53;102095.09;4986740;28;12706;-79
2021/03/20 05:32:04;;;;;;;;;;;;;;;3.57;57.21;102099.34;5019960;28;7986;-77
2021/03/20 05:34:35;;;;;;;;;;;;;;;3.60;57.11;102099.56;5001207;28;7071;-77
2021/03/20 05:37:00;;;;;;;;;;;;;;;3.62;56.66;102108.31;5000223;28;7309;-79
2021/03/20 05:39:26;;;;;;;;;;;;;;;3.62;57.27;102110.88;4999421;28;6830;-78
2021/03/20 05:42:12;;;;;;;;;;;;;;;3.62;56.61;102116.00;5006634;28;6787;-78
2021/03/20 05:44:55;;;;;;;;;;;;;;;3.64;57.15;102122.16;5021926;28;6989;-78
2021/03/20 05:47:23;;;;;;;;;;;;;;;3.66;56.49;102128.28;5004480;28;11676;-77
2021/03/20 05:50:17;;;;;;;;;;;;;;;3.69;56.71;102131.09;5017582;28;6784;-78
2021/03/20 05:53:18;;;;;;;;;;;;;;;3.70;56.58;102130.28;5004894;28;12801;-77
2021/03/20 05:55:58;;;;;;;;;;;;;;;3.73;56.51;102125.38;4998738;28;12838;-77
2021/03/20 05:59:05;;;;;;;;;;;;;;;3.77;56.43;102142.78;5000700;28;8771;-81
2021/03/20 06:01:53;;;;;;;;;;;;;;;3.81;56.36;102142.25;5010721;28;12120;-78
2021/03/20 06:04:50;;;;;;;;;;;;;;;3.88;56.36;102149.63;5005848;28;12889;-78
2021/03/20 06:07:16;;;;;;;;;;;;;;;3.89;56.59;102141.13;4990885;28;11410;-80
2021/03/20 06:09:56;;;;;;;;;;;;;;;3.92;56.49;102143.91;5006477;28;7202;-77
2021/03/20 06:12:22;;;;;;;;;;;;;;;3.97;56.28;102155.41;5017834;28;11388;-80
2021/03/20 06:15:09;;;;;;;;;;;;;;;4.00;56.61;102156.41;5020624;28;6978;-77
2021/03/20 06:17:59;;;;;;;;;;;;;;;4.05;55.91;102165.38;5018941;28;7229;-80
2021/03/20 06:20:57;;;;;;;;;;;;;;;4.05;56.11;102173.97;5018114;28;11182;-78
2021/03/20 06:23:28;;;;;;;;;;;;;;;4.07;56.35;102174.97;5014203;28;12593;-77
2021/03/20 06:25:58;;;;;;;;;;;;;;;4.11;55.85;102173.50;5016599;28;8422;-76
2021/03/20 06:28:59;;;;;;;;;;;;;;;4.16;55.42;102177.28;5004237;28;7913;-76
2021/03/20 06:31:28;;;;;;;;;;;;;;;4.20;55.74;102169.91;5005169;28;10994;-78
2021/03/20 06:33:56;;;;;;;;;;;;;;;4.24;55.55;102181.31;5021566;28;7476;-77
2021/03/20 06:36:30;;;;;;;;;;;;;;;4.27;55.69;102182.44;5004289;28;7254;-76
2021/03/20 06:39:16;;;;;;;;;;;;;;;4.31;55.65;102186.09;4987344;28;7503;-78
2021/03/20 06:42:06;;;;;;;;;;;;;;;4.33;55.52;102181.06;5018080;28;11039;-78
2021/03/20 06:44:42;;;;;;;;;;;;;;;4.36;55.26;102181.28;4989513;28;13423;-75
2021/03/20 06:47:14;;;;;;;;;;;;;;;4.37;55.02;102181.38;4989418;28;7232;-77
2021/03/20 06:50:07;;;;;;;;;;;;;;;4.39;55.52;102174.66;5002104;28;7091;-79
2021/03/20 06:52:34;;;;;;;;;;;;;;;4.41;55.36;102174.81;4998576;28;11476;-77
2021/03/20 06:55:08;;;;;;;;;;;;;;;4.47;55.56;102188.09;5015698;28;7103;-78
2021/03/20 06:57:33;;;;;;;;;;;;;;;4.49;54.82;102182.28;5002835;28;6843;-79
2021/03/20 07:00:07;;;;;;;;;;;;;;;4.52;55.44;102182.47;4991568;28;8556;-78
2021/03/20 07:02:44;;;;;;;;;;;;;;;4.55;54.54;102185.25;4989276;28;7204;-79
2021/03/20 07:05:56;;;;;;;;;;;;;;;4.57;55.34;102193.97;4987529;28;7052;-77
2021/03/20 07:08:40;;;;;;;;;;;;;;;4.58;54.96;102195.75;4986771;28;12478;-77
2021/03/20 07:11:17;;;;;;;;;;;;;;;4.62;54.87;102198.56;5017303;28;7322;-76
2021/03/20 07:13:44;;;;;;;;;;;;;;;4.67;54.56;102192.97;4951874;28;11759;-73
2021/03/20 07:16:30;;;;;;;;;;;;;;;4.75;54.22;102209.81;5016395;28;7392;-72
2021/03/20 07:19:05;;;;;;;;;;;;;;;4.83;54.31;102202.66;5001559;28;11179;-71
2021/03/20 07:21:34;;;;;;;;;;;;;;;4.83;54.43;102202.66;5017117;28;6803;-73
2021/03/20 07:24:03;;;;;;;;;;;;;;;4.78;54.26;102196.25;5003493;28;7305;-74
2021/03/20 07:26:29;;;;;;;;;;;;;;;4.97;54.13;102201.91;5006578;28;6981;-75
2021/03/20 07:28:56;;;;;;;;;;;;;;;5.08;53.79;102206.13;4984799;28;7432;-75
2021/03/20 07:31:21;;;;;;;;;;;;;;;5.16;53.82;102202.38;4989978;28;8704;-74
2021/03/20 07:33:54;;;;;;;;;;;;;;;5.24;53.20;102199.44;5001293;28;7244;-74
2021/03/20 07:36:31;;;;;;;;;;;;;;;5.30;53.15;102205.00;4998213;28;7451;-75
2021/03/20 07:39:09;;;;;;;;;;;;;;;5.34;53.24;102212.13;4990189;28;8767;-74
2021/03/20 07:42:00;;;;;;;;;;;;;;;5.38;52.73;102212.44;5013423;28;6784;-73
2021/03/20 07:44:28;;;;;;;;;;;;;;;5.42;52.86;102214.47;5014520;28;11503;-73
2021/03/20 07:46:53;;;;;;;;;;;;;;;5.44;52.94;102228.31;5018799;28;7214;-74
2021/03/20 07:49:29;;;;;;;;;;;;;;;5.52;52.63;102228.84;5003926;28;6872;-73
2021/03/20 07:52:03;;;;;;;;;;;;;;;5.58;52.71;102229.22;5013327;28;11566;-73
2021/03/20 07:54:32;;;;;;;;;;;;;;;5.61;52.97;102226.88;5007568;28;7086;-74
2021/03/20 07:57:08;;;;;;;;;;;;;;;5.65;52.41;102218.56;5001109;28;7234;-74
2021/03/20 07:59:34;;;;;;;;;;;;;;;5.68;52.85;102221.34;5007738;28;7254;-76
2021/03/20 08:02:01;;;;;;;;;;;;;;;5.76;52.61;102224.41;4990040;28;7329;-74
2021/03/20 08:04:52;;;;;;;;;;;;;;;5.84;52.16;102224.94;4993288;28;7609;-72
2021/03/20 08:07:35;;;;;;;;;;;;;;;5.89;52.21;102227.00;5002523;28;11292;-73
2021/03/20 08:10:26;;;;;;;;;;;;;;;5.94;52.18;102228.22;5015672;28;11240;-72
2021/03/20 08:12:55;;;;;;;;;;;;;;;5.97;52.03;102233.59;5014528;28;13077;-76
2021/03/20 08:15:24;;;;;;;;;;;;;;;6.03;52.24;102240.84;5013975;28;7535;-76
2021/03/20 08:17:50;;;;;;;;;;;;;;;6.14;52.03;102239.84;5015068;28;6815;-74
2021/03/20 08:20:16;;;;;;;;;;;;;;;6.17;51.77;102240.03;5014913;28;7637;-75
2021/03/20 08:23:00;;;;;;;;;;;;;;;6.23;51.36;102245.63;5000572;28;6791;-75
2021/03/20 08:25:53;;;;;;;;;;;;;;;6.27;51.80;102252.75;5017236;28;11225;-75
2021/03/20 08:28:29;;;;;;;;;;;;;;;6.30;51.49;102255.53;4983480;28;13109;-78
2021/03/20 08:31:05;;;;;;;;;;;;;;;6.35;51.50;102260.97;5001020;28;11336;-75
2021/03/20 08:33:48;;;;;;;;;;;;;;;6.40;51.25;102265.63;5000868;28;6816;-75
2021/03/20 08:36:47;;;;;;;;;;;;;;;6.40;51.33;102263.03;4987021;28;7179;-74
2021/03/20 08:39:24;;;;;;;;;;;;;;;6.48;51.58;102273.88;5007130;28;11147;-75
2021/03/20 08:42:09;;;;;;;;;;;;;;;6.54;51.32;102266.50;5013255;28;12094;-75
2021/03/20 08:44:53;;;;;;;;;;;;;;;6.62;50.92;102277.34;5014438;28;11101;-75
2021/03/20 08:47:50;;;;;;;;;;;;;;;6.69;51.02;102275.22;5001832;28;12331;-75
2021/03/20 08:50:30;;;;;;;;;;;;;;;6.84;51.04;102282.16;5006069;28;11192;-77
2021/03/20 08:53:02;;;;;;;;;;;;;;;6.86;50.83;102280.56;4986027;28;10958;-75
2021/03/20 08:55:49;;;;;;;;;;;;;;;6.93;50.72;102273.28;4993334;28;6982;-74
2021/03/20 08:58:40;;;;;;;;;;;;;;;6.99;50.14;102276.25;5015084;28;7371;-75
2021/03/20 09:01:33;;;;;;;;;;;;;;;7.10;50.56;102273.44;5015021;28;11285;-77
2021/03/20 09:04:00;;;;;;;;;;;;;;;7.14;50.22;102272.81;5017896;28;11354;-75
2021/03/20 09:06:35;;;;;;;;;;;;;;;7.19;49.53;102272.28;4989907;28;7137;-74
2021/03/20 09:09:13;;;;;;;;;;;;;;;7.23;50.18;102266.53;4982475;28;7507;-73
2021/03/20 09:11:55;;;;;;;;;;;;;;;7.28;49.91;102261.66;4987920;28;7095;-75
2021/03/20 09:14:22;;;;;;;;;;;;;;;7.38;49.70;102258.78;4988051;28;10977;-75
2021/03/20 09:16:54;;;;;;;;;;;;;;;7.40;49.82;102259.78;5001518;28;6816;-75
2021/03/20 09:19:30;;;;;;;;;;;;;;;7.46;49.42;102251.53;4987550;28;11296;-75
2021/03/20 09:22:04;;;;;;;;;;;;;;;7.56;49.30;102259.91;5012514;28;13473;-74
2021/03/20 09:24:30;;;;;;;;;;;;;;;7.66;49.19;102263.94;4989640;28;7051;-75
2021/03/20 09:26:57;;;;;;;;;;;;;;;7.73;48.95;102260.91;4999344;28;6971;-75
2021/03/20 09:29:25;;;;;;;;;;;;;;;7.76;49.14;102267.94;4995742;28;7371;-73
2021/03/20 09:31:54;;;;;;;;;;;;;;;7.77;48.90;102255.09;5009711;28;7091;-73
2021/03/20 09:34:33;;;;;;;;;;;;;;;7.82;48.56;102268.31;4999196;28;8930;-73
2021/03/20 09:37:04;;;;;;;;;;;;;;;8.02;48.21;102264.31;5008655;28;11183;-74
2021/03/20 09:39:48;;;;;;;;;;;;;;;8.20;47.27;102266.22;5000071;28;7375;-74
2021/03/20 09:42:34;;;;;;;;;;;;;;;8.36;46.91;102267.13;4991058;28;8541;-74
2021/03/20 09:45:11;;;;;;;;;;;;;;;8.50;46.83;102263.63;4982395;28;11155;-78
2021/03/20 09:47:50;;;;;;;;;;;;;;;8.67;46.53;102261.97;5015099;28;7262;-78
2021/03/20 09:50:19;;;;;;;;;;;;;;;8.73;46.51;102246.75;5017165;28;6819;-77
2021/03/20 09:52:51;;;;;;;;;;;;;;;8.75;46.21;102235.66;4994097;28;8509;-78
2021/03/20 09:55:29;;;;;;;;;;;;;;;8.77;46.44;102238.34;5008215;28;11121;-79
2021/03/20 09:57:55;;;;;;;;;;;;;;;8.80;46.25;102228.13;4998188;28;12624;-76
2021/03/20 10:00:49;;;;;;;;;;;;;;;8.91;45.89;102231.31;4989161;28;7329;-78
2021/03/20 10:03:50;;;;;;;;;;;;;;;8.98;45.97;102223.06;5003205;28;12279;-76
2021/03/20 10:06:18;;;;;;;;;;;;;;;9.13;45.60;102227.34;4995933;28;11626;-78
2021/03/20 10:08:45;;;;;;;;;;;;;;;9.27;45.27;102228.09;5018086;28;7730;-77
2021/03/20 10:11:32;;;;;;;;;;;;;;;9.42;45.22;102221.09;4996388;28;7282;-76
2021/03/20 10:13:58;;;;;;;;;;;;;;;9.54;44.98;102215.63;4999447;28;11352;-76
2021/03/20 10:16:25;;;;;;;;;;;;;;;9.61;44.72;102209.97;5016983;28;7005;-79
2021/03/20 10:18:51;;;;;;;;;;;;;;;9.67;44.37;102210.25;4994840;28;6823;-78
2021/03/20 10:21:19;;;;;;;;;;;;;;;9.76;44.22;102212.41;5018680;28;7321;-77
2021/03/20 10:23:53;;;;;;;;;;;;;;;9.85;44.28;102209.41;4991359;28;7466;-76
2021/03/20 10:26:23;;;;;;;;;;;;;;;10.00;44.04;102210.13;5020965;28;11205;-76
2021/03/20 10:28:56;;;;;;;;;;;;;;;10.09;43.29;102209.69;5019406;28;11044;-76
2021/03/20 10:31:22;;;;;;;;;;;;;;;10.12;43.29;102215.91;4995924;28;11197;-78
2021/03/20 10:33:48;;;;;;;;;;;;;;;10.28;43.20;102207.22;5015617;28;12857;-76
2021/03/20 10:36:31;;;;;;;;;;;;;;;10.35;43.18;102206.66;5000330;28;7007;-75
2021/03/20 10:38:57;;;;;;;;;;;;;;;10.51;42.67;102198.78;4991960;28;11001;-76
2021/03/20 10:41:32;;;;;;;;;;;;;;;10.63;42.07;102204.56;5007019;28;7151;-77
2021/03/20 10:44:13;;;;;;;;;;;;;;;10.77;42.15;102199.09;5004882;28;11229;-75
2021/03/20 10:46:38;;;;;;;;;;;;;;;10.90;41.36;102197.13;5012761;28;6988;-79
2021/03/20 10:49:23;;;;;;;;;;;;;;;11.12;40.89;102193.75;5007973;28;7033;-77
2021/03/20 10:51:50;;;;;;;;;;;;;;;11.20;41.08;102194.06;4985569;28;11049;-75
2021/03/20 10:54:37;;;;;;;;;;;;;;;11.38;41.02;102191.38;4985489;28;7115;-75
2021/03/20 10:57:14;;;;;;;;;;;;;;;11.52;40.23;102190.28;4986289;28;11240;-77
2021/03/20 10:59:40;;;;;;;;;;;;;;;11.79;41.01;102182.75;4997042;28;7528;-75
2021/03/20 11:02:35;;;;;;;;;;;;;;;12.63;39.51;102196.53;5006797;28;6809;-76
2021/03/20 11:05:14;;;;;;;;;;;;;;;13.14;40.80;102175.78;4996116;28;11199;-76
2021/03/20 11:07:50;;;;;;;;;;;;;;;13.51;41.43;102181.47;4998418;28;7890;-78
2021/03/20 11:10:22;;;;;;;;;;;;;;;13.74;43.59;102176.13;4991351;28;8523;-78
2021/03/20 11:12:49;;;;;;;;;;;;;;;13.68;45.09;102180.31;5001199;28;7222;-78
2021/03/20 11:15:26;;;;;;;;;;;;;;;13.78;45.60;102167.56;5003755;28;6839;-78
2021/03/20 11:17:54;;;;;;;;;;;;;;;14.04;44.16;102182.38;5017146;28;11159;-78
2021/03/20 11:20:23;;;;;;;;;;;;;;;14.36;42.46;102172.91;4994663;28;13025;-78
2021/03/20 11:22:48;;;;;;;;;;;;;;;14.57;41.71;102180.53;4986956;28;7193;-76
2021/03/20 11:25:37;;;;;;;;;;;;;;;14.92;41.20;102178.94;4998435;28;7302;-77
2021/03/20 11:28:25;;;;;;;;;;;;;;;15.30;38.83;102182.59;4976665;28;12297;-74
2021/03/20 11:30:51;;;;;;;;;;;;;;;15.29;39.29;102169.47;4986298;28;13058;-74
2021/03/20 11:33:21;;;;;;;;;;;;;;;15.36;39.17;102164.44;5002989;28;7194;-72
2021/03/20 11:35:51;;;;;;;;;;;;;;;15.58;38.67;102162.38;5002894;28;7025;-73
2021/03/20 11:38:17;;;;;;;;;;;;;;;15.66;37.92;102155.63;5002032;28;8629;-74
2021/03/20 11:41:03;;;;;;;;;;;;;;;15.99;36.97;102153.81;4978716;28;7625;-74
2021/03/20 11:43:43;;;;;;;;;;;;;;;16.23;36.34;102152.63;5001675;28;11282;-74
2021/03/20 11:46:19;;;;;;;;;;;;;;;16.53;36.05;102152.41;4997065;28;7261;-74
2021/03/20 11:49:05;;;;;;;;;;;;;;;16.60;35.23;102142.06;5002633;28;6832;-74
2021/03/20 11:51:39;;;;;;;;;;;;;;;16.93;34.05;102149.75;5002501;28;11132;-74
2021/03/20 11:54:37;;;;;;;;;;;;;;;17.05;33.47;102130.75;4987562;28;7195;-75
2021/03/20 11:57:05;;;;;;;;;;;;;;;17.11;33.77;102128.22;4996809;28;12915;-74
2021/03/20 11:59:39;;;;;;;;;;;;;;;17.37;33.37;102133.94;4977452;28;7017;-74
2021/03/20 12:02:08;;;;;;;;;;;;;;;17.64;32.70;102126.53;4988536;28;6811;-74
2021/03/20 12:04:34;;;;;;;;;;;;;;;17.98;32.15;102134.06;5005506;28;7290;-73
2021/03/20 12:07:18;;;;;;;;;;;;;;;18.36;31.38;102142.50;5000823;28;7098;-75
2021/03/20 12:09:43;;;;;;;;;;;;;;;18.86;30.27;102134.41;5016999;28;7066;-74
2021/03/20 12:12:09;;;;;;;;;;;;;;;19.20;29.83;102133.84;4997607;28;7188;-75
2021/03/20 12:14:38;;;;;;;;;;;;;;;19.63;29.11;102132.53;5013748;28;7101;-75
2021/03/20 12:17:10;;;;;;;;;;;;;;;19.97;28.49;102132.78;5013417;28;7071;-75
2021/03/20 12:19:50;;;;;;;;;;;;;;;20.30;27.88;102121.53;5014963;28;6995;-76
2021/03/20 12:22:16;;;;;;;;;;;;;;;20.48;28.01;102115.50;5017173;28;8846;-76
2021/03/20 12:24:50;;;;;;;;;;;;;;;20.70;27.23;102112.06;4968452;28;7150;-76
2021/03/20 12:27:35;;;;;;;;;;;;;;;21.03;26.97;102097.19;5000707;28;7321;-75
2021/03/20 12:30:05;;;;;;;;;;;;;;;21.20;26.74;102104.22;4999010;28;11156;-76
2021/03/20 12:32:58;;;;;;;;;;;;;;;21.60;26.08;102098.09;4987308;28;7190;-75
2021/03/20 12:35:29;;;;;;;;;;;;;;;21.98;25.51;102096.28;4980537;28;11110;-76
2021/03/20 12:38:05;;;;;;;;;;;;;;;22.21;25.58;102098.00;4999844;28;11279;-76
2021/03/20 12:40:31;;;;;;;;;;;;;;;22.56;24.21;102090.78;5010753;28;10984;-77
2021/03/20 12:43:01;;;;;;;;;;;;;;;23.01;23.71;102081.72;5016606;28;7580;-76
2021/03/20 12:45:27;;;;;;;;;;;;;;;23.08;23.48;102077.28;4960255;28;11571;-76
2021/03/20 12:47:52;;;;;;;;;;;;;;;23.36;23.03;102073.50;5014718;28;8130;-76
2021/03/20 12:50:18;;;;;;;;;;;;;;;23.54;22.23;102071.59;5002974;28;6791;-76
2021/03/20 12:52:43;;;;;;;;;;;;;;;23.70;22.93;102065.28;5011047;28;7372;-76
2021/03/20 12:55:10;;;;;;;;;;;;;;;23.83;23.19;102066.03;4986377;28;7862;-76
2021/03/20 12:57:35;;;;;;;;;;;;;;;24.11;22.79;102055.97;4999043;28;7182;-76
2021/03/20 13:00:04;;;;;;;;;;;;;;;24.25;22.47;102054.91;5017068;28;8207;-76
2021/03/20 13:02:29;;;;;;;;;;;;;;;24.52;21.90;102037.75;4992734;28;7417;-77
2021/03/20 13:04:55;;;;;;;;;;;;;;;24.71;22.39;102037.50;5015979;28;7688;-76
2021/03/20 13:07:21;;;;;;;;;;;;;;;24.91;21.79;102030.09;5015057;28;7280;-76
2021/03/20 13:09:47;;;;;;;;;;;;;;;24.86;21.37;102032.81;4981306;28;7247;-76
2021/03/20 13:12:13;;;;;;;;;;;;;;;24.98;21.92;102029.06;5012658;28;7072;-75
2021/03/20 13:14:39;;;;;;;;;;;;;;;25.12;21.66;102029.78;5005755;28;7118;-77
2021/03/20 13:17:05;;;;;;;;;;;;;;;25.49;21.32;102034.44;5005421;28;8390;-76
2021/03/20 13:19:31;;;;;;;;;;;;;;;25.83;21.11;102028.50;5003966;28;7490;-75
2021/03/20 13:21:57;;;;;;;;;;;;;;;26.28;20.39;102016.03;4996254;28;7404;-76
2021/03/20 13:24:23;;;;;;;;;;;;;;;28.34;18.42;102014.25;4983250;28;8529;-76
2021/03/20 13:26:48;;;;;;;;;;;;;;;32.17;15.05;102025.44;5011606;28;7265;-76